createdAt,value
2023-01-01T00:00:27.198Z,53.03
2023-01-01T00:02:55.212Z,50.50
2023-01-01T00:05:24.580Z,38.20
2023-01-01T00:07:52.699Z,48.80
2023-01-01T00:10:30.053Z,39.10
2023-01-01T00:12:58.537Z,52.30
2023-01-01T00:15:26.921Z,44.37
2023-01-01T00:17:55.168Z,33.90
2023-01-01T00:20:27.557Z,45.50
2023-01-01T00:22:58.126Z,49.97
2023-01-01T00:25:26.543Z,41.97
2023-01-01T00:27:54.670Z,47.80
2023-01-01T00:30:24.798Z,46.13
2023-01-01T00:32:55.137Z,45.37
2023-01-01T00:35:25.961Z,43.90
2023-01-01T00:37:54.827Z,43.77
2023-01-01T00:40:22.886Z,48.70
2023-01-01T00:42:51.066Z,48.07
2023-01-01T00:45:22.409Z,44.63
2023-01-01T00:47:51.786Z,47.90
2023-01-01T00:50:19.922Z,36.07
2023-01-01T00:52:49.910Z,39.33
2023-01-01T00:55:18.000Z,39.70
2023-01-01T00:57:45.944Z,35.13
2023-01-01T01:00:15.819Z,29.27
2023-01-01T01:02:44.010Z,36.33
2023-01-01T01:05:12.178Z,34.40
2023-01-01T01:07:40.565Z,37.63
2023-01-01T01:10:12.113Z,37.13
2023-01-01T01:12:40.339Z,40.70
2023-01-01T01:15:10.080Z,45.30
2023-01-01T01:17:38.284Z,43.37
2023-01-01T01:20:07.456Z,41.60
2023-01-01T01:22:36.047Z,40.27
2023-01-01T01:25:05.947Z,37.10
2023-01-01T01:27:35.494Z,45.43
2023-01-01T01:30:03.392Z,45.07
2023-01-01T01:32:31.341Z,41.43
2023-01-01T01:34:59.248Z,58.97
2023-01-01T01:37:27.167Z,44.10
2023-01-01T01:39:55.117Z,38.70
2023-01-01T01:42:23.647Z,37.73
2023-01-01T01:44:56.543Z,37.00
2023-01-01T01:47:32.034Z,36.97
2023-01-01T01:50:04.261Z,33.07
2023-01-01T01:52:34.416Z,39.73
2023-01-01T01:55:04.493Z,39.70
2023-01-01T01:57:36.606Z,44.13
2023-01-01T02:00:10.939Z,42.73
2023-01-01T02:02:47.548Z,39.10
2023-01-01T02:05:15.969Z,40.93
2023-01-01T02:07:44.153Z,45.60
2023-01-01T02:10:12.366Z,35.33
2023-01-01T02:12:40.521Z,42.43
2023-01-01T02:15:11.349Z,46.50
2023-01-01T02:17:45.728Z,55.30
2023-01-01T02:20:30.346Z,54.00
2023-01-01T02:23:16.724Z,46.03
2023-01-01T02:25:58.539Z,47.30
2023-01-01T02:28:45.165Z,45.97
2023-01-01T02:31:22.775Z,47.50
2023-01-01T02:33:54.207Z,53.23
2023-01-01T02:36:26.135Z,48.50
2023-01-01T02:38:58.017Z,50.43
2023-01-01T02:41:28.883Z,48.63
2023-01-01T02:46:25.168Z,43.93
2023-01-01T02:48:54.124Z,52.40
2023-01-01T02:51:34.361Z,52.83
2023-01-01T02:54:09.633Z,47.97
2023-01-01T02:56:43.288Z,47.30
2023-01-01T02:59:40.122Z,49.37
2023-01-01T03:02:19.422Z,47.30
2023-01-01T03:05:02.314Z,57.83
2023-01-01T03:07:41.981Z,49.77
2023-01-01T03:10:16.321Z,49.50
2023-01-01T03:12:51.456Z,48.60
2023-01-01T03:15:28.698Z,47.07
2023-01-01T03:18:02.546Z,43.97
2023-01-01T03:20:34.941Z,49.70
2023-01-01T03:23:07.934Z,47.77
2023-01-01T03:25:41.509Z,54.27
2023-01-01T03:28:15.630Z,41.13
2023-01-01T03:30:47.572Z,50.13
2023-01-01T03:33:22.299Z,46.17
2023-01-01T03:35:55.235Z,47.30
2023-01-01T03:38:27.542Z,48.63
2023-01-01T03:41:03.079Z,49.70
2023-01-01T03:43:40.696Z,43.73
2023-01-01T03:46:11.923Z,42.30
2023-01-01T03:49:00.281Z,39.00
2023-01-01T03:51:44.681Z,45.10
2023-01-01T03:54:23.308Z,38.23
2023-01-01T03:56:57.139Z,46.97
2023-01-01T03:59:30.281Z,47.73
2023-01-01T04:02:01.580Z,43.67
2023-01-01T04:04:29.801Z,43.27
2023-01-01T04:07:05.237Z,45.07
2023-01-01T04:09:48.167Z,42.13
2023-01-01T04:12:18.058Z,40.80
2023-01-01T04:14:46.016Z,38.37
2023-01-01T04:17:15.307Z,37.53
2023-01-01T04:19:43.443Z,44.20
2023-01-01T04:22:11.384Z,49.70
2023-01-01T04:24:39.368Z,35.10
2023-01-01T04:27:07.301Z,36.87
2023-01-01T04:29:36.260Z,39.23
2023-01-01T04:32:04.266Z,39.60
2023-01-01T04:34:33.549Z,47.07
2023-01-01T04:37:01.443Z,44.17
2023-01-01T04:39:29.381Z,43.83
2023-01-01T04:41:57.324Z,40.13
2023-01-01T04:44:25.266Z,44.50
2023-01-01T04:46:56.917Z,38.10
2023-01-01T04:49:28.050Z,38.90
2023-01-01T04:51:57.308Z,42.53
2023-01-01T04:54:25.240Z,37.07
2023-01-01T04:56:53.216Z,37.30
2023-01-01T04:59:21.165Z,38.43
2023-01-01T05:01:49.306Z,42.80
2023-01-01T05:04:18.211Z,44.57
2023-01-01T05:06:46.141Z,45.63
2023-01-01T05:09:15.445Z,39.57
2023-01-01T05:11:43.537Z,37.60
2023-01-01T05:14:11.623Z,41.37
2023-01-01T05:16:40.836Z,37.23
2023-01-01T05:19:10.573Z,51.20
2023-01-01T05:21:40.451Z,40.93
2023-01-01T05:24:11.033Z,42.70
2023-01-01T05:26:42.887Z,43.30
2023-01-01T05:29:16.014Z,40.40
2023-01-01T05:31:45.423Z,43.47
2023-01-01T05:34:13.789Z,37.23
2023-01-01T05:36:41.728Z,42.70
2023-01-01T05:39:12.018Z,36.37
2023-01-01T05:41:41.585Z,36.37
2023-01-01T05:44:11.517Z,33.23
2023-01-01T05:46:39.476Z,38.47
2023-01-01T05:49:07.471Z,37.20
2023-01-01T05:54:02.271Z,38.83
2023-01-01T05:56:30.604Z,38.93
2023-01-01T05:58:59.899Z,41.30
2023-01-01T06:01:30.382Z,37.17
2023-01-01T06:04:00.086Z,38.17
2023-01-01T06:06:30.162Z,38.67
2023-01-01T06:09:00.332Z,43.57
2023-01-01T06:11:28.834Z,40.73
2023-01-01T06:13:59.800Z,38.70
2023-01-01T06:16:30.052Z,42.00
2023-01-01T06:18:59.211Z,53.93
2023-01-01T06:21:28.950Z,52.10
2023-01-01T06:23:58.037Z,55.87
2023-01-01T06:26:28.239Z,52.77
2023-01-01T06:28:57.600Z,47.83
2023-01-01T06:31:27.937Z,44.73
2023-01-01T06:33:56.051Z,33.37
2023-01-01T06:36:25.851Z,41.83
2023-01-01T06:38:55.596Z,49.57
2023-01-01T06:41:25.194Z,42.30
2023-01-01T06:43:53.203Z,42.10
2023-01-01T06:46:22.840Z,35.50
2023-01-01T06:48:55.017Z,37.60
2023-01-01T06:51:24.728Z,37.83
2023-01-01T06:53:54.138Z,45.53
2023-01-01T06:56:22.663Z,37.70
2023-01-01T06:58:50.706Z,35.00
2023-01-01T07:01:21.252Z,35.23
2023-01-01T07:03:53.632Z,35.97
2023-01-01T07:06:21.937Z,38.20
2023-01-01T07:08:49.896Z,48.80
2023-01-01T07:11:17.956Z,43.23
2023-01-01T07:13:46.400Z,48.27
2023-01-01T07:16:14.394Z,37.33
2023-01-01T07:18:42.851Z,64.47
2023-01-01T07:21:29.519Z,48.07
2023-01-01T07:23:58.581Z,51.10
2023-01-01T07:26:27.564Z,38.10
2023-01-01T07:28:59.500Z,36.63
2023-01-01T07:31:32.447Z,39.43
2023-01-01T07:34:00.393Z,40.30
2023-01-01T07:36:29.695Z,38.40
2023-01-01T07:38:57.732Z,37.07
2023-01-01T07:41:25.757Z,38.37
2023-01-01T07:43:53.830Z,47.33
2023-01-01T07:46:21.945Z,39.70
2023-01-01T07:48:49.937Z,44.73
2023-01-01T07:51:17.890Z,37.70
2023-01-01T07:53:47.233Z,48.13
2023-01-01T07:56:15.171Z,35.47
2023-01-01T07:58:43.748Z,40.50
2023-01-01T08:01:13.105Z,41.20
2023-01-01T08:03:41.104Z,31.60
2023-01-01T08:06:11.352Z,30.87
2023-01-01T08:08:39.619Z,41.17
2023-01-01T08:11:09.365Z,44.20
2023-01-01T08:13:37.345Z,39.17
2023-01-01T08:16:06.347Z,41.90
2023-01-01T08:18:34.272Z,35.97
2023-01-01T08:21:02.285Z,38.77
2023-01-01T08:23:30.251Z,36.70
2023-01-01T08:26:01.327Z,33.73
2023-01-01T08:28:31.658Z,39.23
2023-01-01T08:31:00.413Z,39.57
2023-01-01T08:33:28.431Z,32.97
2023-01-01T08:35:56.461Z,34.50
2023-01-01T08:38:24.762Z,41.30
2023-01-01T08:40:52.783Z,36.27
2023-01-01T08:43:20.787Z,45.70
2023-01-01T08:45:50.056Z,48.70
2023-01-01T08:48:18.055Z,34.40
2023-01-01T08:50:46.016Z,34.17
2023-01-01T08:53:13.941Z,32.13
2023-01-01T08:55:41.912Z,38.07
2023-01-01T08:58:09.950Z,32.40
2023-01-01T09:00:37.864Z,31.30
2023-01-01T09:03:07.241Z,36.33
2023-01-01T09:05:35.250Z,36.63
2023-01-01T09:08:03.198Z,34.90
2023-01-01T09:10:31.405Z,34.43
2023-01-01T09:12:59.369Z,32.63
2023-01-01T09:15:27.331Z,37.63
2023-01-01T09:17:55.277Z,31.30
2023-01-01T09:20:24.709Z,30.90
2023-01-01T09:22:52.652Z,33.90
2023-01-01T09:25:20.712Z,32.37
2023-01-01T09:27:48.640Z,36.20
2023-01-01T09:30:16.759Z,39.63
2023-01-01T09:32:44.688Z,43.33
2023-01-01T09:35:12.658Z,50.47
2023-01-01T09:37:41.946Z,45.10
2023-01-01T09:40:27.492Z,41.27
2023-01-01T09:43:05.171Z,43.50
2023-01-01T09:45:38.516Z,45.93
2023-01-01T09:48:11.553Z,43.60
2023-01-01T09:50:41.109Z,44.23
2023-01-01T09:53:16.184Z,47.93
2023-01-01T09:55:48.357Z,48.80
2023-01-01T09:58:16.836Z,45.33
2023-01-01T10:00:48.376Z,42.73
2023-01-01T10:03:35.416Z,40.70
2023-01-01T10:06:16.837Z,44.50
2023-01-01T10:09:02.007Z,49.33
2023-01-01T10:11:37.090Z,43.33
2023-01-01T10:14:16.820Z,43.67
2023-01-01T10:16:47.928Z,40.13
2023-01-01T10:19:25.899Z,40.50
2023-01-01T10:21:57.547Z,42.33
2023-01-01T10:24:46.815Z,45.47
2023-01-01T10:27:27.129Z,42.93
2023-01-01T10:30:01.328Z,41.90
2023-01-01T10:32:34.082Z,45.20
2023-01-01T10:35:03.560Z,56.57
2023-01-01T10:37:36.756Z,43.30
2023-01-01T10:40:14.605Z,45.83
2023-01-01T10:42:42.529Z,45.67
2023-01-01T10:45:16.141Z,41.83
2023-01-01T10:48:12.064Z,41.20
2023-01-01T10:50:46.522Z,39.80
2023-01-01T10:53:28.053Z,41.40
2023-01-01T10:56:05.084Z,40.60
2023-01-01T10:58:41.138Z,42.50
2023-01-01T11:01:10.701Z,40.60
2023-01-01T11:03:38.799Z,43.50
2023-01-01T11:06:23.469Z,41.73
2023-01-01T11:08:53.749Z,37.63
2023-01-01T11:11:28.619Z,40.43
2023-01-01T11:13:59.535Z,37.37
2023-01-01T11:16:28.972Z,40.67
2023-01-01T11:19:03.902Z,45.00
2023-01-01T11:21:32.734Z,45.43
2023-01-01T11:24:20.135Z,43.47
2023-01-01T11:26:54.569Z,38.37
2023-01-01T11:29:28.017Z,38.27
2023-01-01T11:31:57.965Z,37.40
2023-01-01T11:34:32.594Z,36.80
2023-01-01T11:37:20.853Z,39.63
2023-01-01T11:39:50.796Z,37.27
2023-01-01T11:42:23.416Z,39.30
2023-01-01T11:44:55.453Z,42.70
2023-01-01T11:47:28.446Z,45.43
2023-01-01T11:49:58.996Z,43.33
2023-01-01T11:52:49.918Z,39.90
2023-01-01T11:55:24.431Z,41.80
2023-01-01T11:58:05.125Z,37.80
2023-01-01T12:00:36.734Z,36.10
2023-01-01T12:03:12.853Z,36.80
2023-01-01T12:05:48.506Z,34.03
2023-01-01T12:08:24.163Z,41.90
2023-01-01T12:10:56.945Z,41.30
2023-01-01T12:13:30.791Z,35.27
2023-01-01T12:16:08.225Z,41.40
2023-01-01T12:18:43.408Z,40.53
2023-01-01T12:21:17.167Z,38.10
2023-01-01T12:23:45.155Z,36.00
2023-01-01T12:26:21.291Z,38.90
2023-01-01T12:29:27.329Z,50.80
2023-01-01T12:32:05.685Z,33.10
2023-01-01T12:34:39.401Z,34.77
2023-01-01T12:37:15.768Z,32.43
2023-01-01T12:40:17.009Z,31.23
2023-01-01T12:42:57.810Z,32.47
2023-01-01T12:45:58.763Z,32.47
2023-01-01T12:48:43.443Z,28.97
2023-01-01T12:51:25.027Z,29.70
2023-01-01T12:54:03.857Z,32.50
2023-01-01T12:56:37.364Z,33.37
2023-01-01T12:59:11.101Z,31.67
2023-01-01T13:01:41.614Z,31.00
2023-01-01T13:04:13.435Z,35.87
2023-01-01T13:06:46.665Z,29.33
2023-01-01T13:09:17.585Z,29.77
2023-01-01T13:11:49.356Z,29.07
2023-01-01T13:14:18.016Z,28.30
2023-01-01T13:16:51.509Z,27.53
2023-01-01T13:19:31.735Z,32.30
2023-01-01T13:21:59.996Z,27.60
2023-01-01T13:24:29.249Z,32.03
2023-01-01T13:26:57.136Z,32.07
2023-01-01T13:29:43.845Z,28.50
2023-01-01T13:32:14.859Z,28.07
2023-01-01T13:35:19.081Z,35.90
2023-01-01T13:37:48.222Z,28.97
2023-01-01T13:40:53.197Z,32.17
2023-01-01T13:43:29.019Z,31.30
2023-01-01T13:46:14.514Z,27.87
2023-01-01T13:49:15.393Z,30.53
2023-01-01T13:52:21.174Z,28.23
2023-01-01T13:55:16.179Z,27.90
2023-01-01T13:58:11.138Z,29.53
2023-01-01T14:00:55.025Z,25.73
2023-01-01T14:03:25.619Z,28.73
2023-01-01T14:05:59.229Z,28.90
2023-01-01T14:08:32.036Z,32.13
2023-01-01T14:11:02.097Z,30.63
2023-01-01T14:13:32.493Z,28.97
2023-01-01T14:16:03.449Z,29.57
2023-01-01T14:18:35.424Z,29.57
2023-01-01T14:21:11.027Z,28.50
2023-01-01T14:23:45.247Z,26.10
2023-01-01T14:26:16.288Z,31.30
2023-01-01T14:28:44.672Z,31.23
2023-01-01T14:31:15.301Z,34.20
2023-01-01T14:33:43.585Z,30.33
2023-01-01T14:36:21.654Z,38.73
2023-01-01T14:38:51.348Z,32.30
2023-01-01T14:41:25.038Z,36.70
2023-01-01T14:43:57.212Z,39.73
2023-01-01T14:46:27.502Z,40.83
2023-01-01T14:48:57.998Z,49.10
2023-01-01T14:51:29.318Z,43.83
2023-01-01T14:53:59.664Z,34.20
2023-01-01T14:56:29.588Z,36.70
2023-01-01T14:59:06.432Z,36.03
2023-01-01T15:01:34.554Z,36.47
2023-01-01T15:04:05.778Z,38.47
2023-01-01T15:06:41.072Z,39.73
2023-01-01T15:09:16.205Z,40.03
2023-01-01T15:11:44.555Z,39.47
2023-01-01T15:14:30.827Z,42.67
2023-01-01T15:17:02.974Z,39.77
2023-01-01T15:19:30.955Z,46.70
2023-01-01T15:22:00.717Z,47.67
2023-01-01T15:24:30.437Z,44.87
2023-01-01T15:27:01.544Z,49.87
2023-01-01T15:29:31.406Z,47.30
2023-01-01T15:32:01.493Z,50.17
2023-01-01T15:34:32.373Z,53.03
2023-01-01T15:37:11.561Z,52.97
2023-01-01T15:39:50.819Z,52.83
2023-01-01T15:42:33.122Z,55.63
2023-01-01T15:45:21.429Z,59.30
2023-01-01T15:47:49.895Z,54.17
2023-01-01T15:50:23.972Z,51.40
2023-01-01T15:52:56.790Z,54.23
2023-01-01T15:55:28.388Z,52.23
2023-01-01T15:57:56.861Z,55.80
2023-01-01T16:00:26.969Z,54.63
2023-01-01T16:02:58.428Z,61.53
2023-01-01T16:05:28.097Z,58.50
2023-01-01T16:08:03.962Z,55.33
2023-01-01T16:10:32.658Z,58.60
2023-01-01T16:13:00.630Z,62.30
2023-01-01T16:15:28.857Z,61.07
2023-01-01T16:17:56.922Z,60.50
2023-01-01T16:20:25.385Z,60.40
2023-01-01T16:22:53.746Z,61.67
2023-01-01T16:25:24.077Z,67.77
2023-01-01T16:27:52.027Z,63.00
2023-01-01T16:30:19.952Z,67.53
2023-01-01T16:32:49.052Z,64.00
2023-01-01T16:35:17.260Z,71.50
2023-01-01T16:37:45.298Z,71.90
2023-01-01T16:40:13.767Z,66.10
2023-01-01T16:42:43.135Z,71.63
2023-01-01T16:45:18.241Z,77.37
2023-01-01T16:47:46.311Z,66.03
2023-01-01T16:50:14.649Z,71.00
2023-01-01T16:52:45.001Z,76.60
2023-01-01T16:55:13.627Z,77.57
2023-01-01T16:57:43.351Z,72.07
2023-01-01T17:00:12.631Z,72.20
2023-01-01T17:02:40.675Z,73.33
2023-01-01T17:05:09.716Z,78.83
2023-01-01T17:07:37.680Z,72.00
2023-01-01T17:10:06.250Z,78.30
2023-01-01T17:12:34.341Z,71.93
2023-01-01T17:15:03.747Z,73.73
2023-01-01T17:17:31.749Z,91.97
2023-01-01T17:19:59.685Z,78.60
2023-01-01T17:22:33.907Z,89.07
2023-01-01T17:25:02.350Z,86.13
2023-01-01T17:27:30.250Z,99.17
2023-01-01T17:29:58.142Z,73.80
2023-01-01T17:32:27.433Z,73.87
2023-01-01T17:34:55.589Z,71.70
2023-01-01T17:37:23.810Z,73.90
2023-01-01T17:39:51.724Z,71.97
2023-01-01T17:42:19.625Z,84.03
2023-01-01T17:44:47.597Z,65.40
2023-01-01T17:47:15.614Z,70.13
2023-01-01T17:49:45.008Z,77.43
2023-01-01T17:52:13.068Z,68.70
2023-01-01T17:54:40.998Z,92.23
2023-01-01T17:57:09.908Z,77.20
2023-01-01T17:59:38.512Z,93.83
2023-01-01T18:02:08.944Z,77.83
2023-01-01T18:04:37.327Z,84.20
2023-01-01T18:07:06.682Z,86.00
2023-01-01T18:09:38.257Z,86.93
2023-01-01T18:12:07.556Z,95.80
2023-01-01T18:14:35.686Z,93.73
2023-01-01T18:17:03.728Z,92.47
2023-01-01T18:19:32.402Z,88.93
2023-01-01T18:22:00.374Z,79.13
2023-01-01T18:24:30.511Z,74.67
2023-01-01T18:26:58.532Z,120.57
2023-01-01T18:29:26.566Z,119.30
2023-01-01T18:31:54.517Z,101.63
2023-01-01T18:34:22.778Z,109.80
2023-01-01T18:36:50.804Z,94.50
2023-01-01T18:39:23.149Z,106.13
2023-01-01T18:42:34.724Z,99.40
2023-01-01T18:45:14.739Z,89.77
2023-01-01T18:47:45.651Z,94.93
2023-01-01T18:50:23.595Z,117.27
2023-01-01T18:52:54.633Z,93.07
2023-01-01T18:55:26.909Z,82.13
2023-01-01T18:58:00.638Z,75.60
2023-01-01T19:00:31.362Z,107.90
2023-01-01T19:03:01.510Z,91.03
2023-01-01T19:05:31.133Z,105.53
2023-01-01T19:08:11.183Z,118.27
2023-01-01T19:10:41.540Z,392.17
2023-01-01T19:13:19.458Z,311.97
2023-01-01T19:15:51.083Z,59.30
2023-01-01T19:18:20.903Z,64.17
2023-01-01T19:20:56.941Z,86.33
2023-01-01T19:23:25.888Z,147.67
2023-01-01T19:25:54.352Z,175.20
2023-01-01T19:28:36.835Z,114.10
2023-01-01T19:31:07.666Z,226.23
2023-01-01T19:33:35.692Z,232.27
2023-01-01T19:36:03.621Z,240.23
2023-01-01T19:38:31.543Z,271.07
2023-01-01T19:40:59.558Z,504.40
2023-01-01T19:43:27.616Z,197.13
2023-01-01T19:45:55.575Z,421.50
2023-01-01T19:48:25.916Z,382.40
2023-01-01T19:50:54.167Z,376.47
2023-01-01T19:53:22.126Z,445.47
2023-01-01T19:55:50.113Z,468.93
2023-01-01T19:58:19.803Z,328.90
2023-01-01T20:00:47.924Z,300.53
2023-01-01T20:06:05.930Z,64.73
2023-01-01T20:08:33.893Z,66.33
2023-01-01T20:11:02.213Z,106.27
2023-01-01T20:13:30.943Z,78.83
2023-01-01T20:15:59.165Z,86.17
2023-01-01T20:18:27.109Z,79.20
2023-01-01T20:21:12.442Z,77.53
2023-01-01T20:23:41.896Z,65.30
2023-01-01T20:26:10.221Z,55.13
2023-01-01T20:28:55.562Z,121.30
2023-01-01T20:31:23.595Z,83.70
2023-01-01T20:33:51.531Z,62.70
2023-01-01T20:36:37.045Z,105.83
2023-01-01T20:39:06.336Z,127.13
2023-01-01T20:41:34.320Z,156.30
2023-01-01T20:44:02.259Z,94.57
2023-01-01T20:46:30.827Z,93.37
2023-01-01T20:48:59.265Z,105.33
2023-01-01T20:51:27.223Z,143.50
2023-01-01T20:53:55.176Z,154.00
2023-01-01T20:56:24.543Z,108.23
2023-01-01T20:58:58.977Z,118.57
2023-01-01T21:01:28.468Z,162.40
2023-01-01T21:03:56.519Z,98.07
2023-01-01T21:06:25.018Z,172.23
2023-01-01T21:08:53.072Z,108.97
2023-01-01T21:11:21.029Z,134.83
2023-01-01T21:13:50.707Z,145.80
2023-01-01T21:16:20.876Z,59.07
2023-01-01T21:18:49.638Z,156.43
2023-01-01T21:21:21.448Z,56.93
2023-01-01T21:23:50.203Z,106.50
2023-01-01T21:26:23.719Z,170.07
2023-01-01T21:28:53.199Z,119.23
2023-01-01T21:31:22.622Z,76.67
2023-01-01T21:33:50.591Z,101.47
2023-01-01T21:36:20.418Z,158.30
2023-01-01T21:38:49.989Z,152.87
2023-01-01T21:41:20.686Z,176.93
2023-01-01T21:43:51.865Z,231.83
2023-01-01T21:46:37.490Z,75.63
2023-01-01T21:49:14.748Z,58.93
2023-01-01T21:51:47.642Z,69.47
2023-01-01T21:54:31.016Z,61.93
2023-01-01T21:57:00.797Z,75.07
2023-01-01T21:59:37.450Z,71.80
2023-01-01T22:02:33.220Z,56.33
2023-01-01T22:05:03.844Z,67.30
2023-01-01T22:10:25.037Z,61.63
2023-01-01T22:12:57.502Z,60.13
2023-01-01T22:15:40.335Z,73.17
2023-01-01T22:18:24.011Z,70.20
2023-01-01T22:20:52.582Z,97.77
2023-01-01T22:23:40.188Z,71.07
2023-01-01T22:26:18.432Z,62.10
2023-01-01T22:28:48.174Z,63.90
2023-01-01T22:31:21.526Z,79.87
2023-01-01T22:33:52.826Z,58.53
2023-01-01T22:36:25.389Z,100.00
2023-01-01T22:38:55.420Z,97.77
2023-01-01T22:41:23.346Z,96.93
2023-01-01T22:43:53.164Z,107.17
2023-01-01T22:46:27.997Z,130.80
2023-01-01T22:48:59.871Z,125.17
2023-01-01T22:51:35.173Z,95.10
2023-01-01T22:54:03.272Z,91.17
2023-01-01T22:56:31.184Z,89.00
2023-01-01T22:58:59.206Z,85.80
2023-01-01T23:01:27.265Z,134.93
2023-01-01T23:03:55.313Z,113.60
2023-01-01T23:06:25.448Z,100.43
2023-01-01T23:08:54.355Z,110.33
2023-01-01T23:11:23.163Z,96.27
2023-01-01T23:14:09.451Z,84.07
2023-01-01T23:16:38.019Z,75.90
2023-01-01T23:19:06.400Z,96.60
2023-01-01T23:21:37.409Z,97.77
2023-01-01T23:24:09.913Z,91.03
2023-01-01T23:26:38.991Z,79.77
2023-01-01T23:29:08.332Z,86.33
2023-01-01T23:31:36.493Z,92.97
2023-01-01T23:34:05.239Z,70.90
2023-01-01T23:36:33.721Z,74.10
2023-01-01T23:39:03.359Z,76.77
2023-01-01T23:41:32.056Z,66.80
2023-01-01T23:44:00.137Z,64.80
2023-01-01T23:46:28.263Z,59.53
2023-01-01T23:48:56.485Z,73.17
2023-01-01T23:51:24.408Z,77.20
2023-01-01T23:53:52.347Z,78.03
2023-01-01T23:56:21.608Z,95.37
2023-01-01T23:58:49.661Z,72.17
